sensor_id;sensor_type;location;lat;lon;timestamp;temperature;humidity
18974;DHT22;9621;48.690;9.466;2023-06-26T00:00:11;14.10;81.20
18974;DHT22;9621;48.690;9.466;2023-06-26T00:02:38;14.10;81.40
18974;DHT22;9621;48.690;9.466;2023-06-26T00:05:05;14.00;81.30
18974;DHT22;9621;48.690;9.466;2023-06-26T00:07:33;14.00;81.60
18974;DHT22;9621;48.690;9.466;2023-06-26T00:10:00;13.90;81.70
18974;DHT22;9621;48.690;9.466;2023-06-26T00:12:28;13.90;81.90
18974;DHT22;9621;48.690;9.466;2023-06-26T00:14:57;13.80;82.50
18974;DHT22;9621;48.690;9.466;2023-06-26T00:17:24;13.80;82.70
18974;DHT22;9621;48.690;9.466;2023-06-26T00:19:51;13.70;82.70
18974;DHT22;9621;48.690;9.466;2023-06-26T00:22:18;13.70;83.40
18974;DHT22;9621;48.690;9.466;2023-06-26T00:24:44;13.70;83.60
18974;DHT22;9621;48.690;9.466;2023-06-26T00:27:11;13.60;83.90
18974;DHT22;9621;48.690;9.466;2023-06-26T00:29:38;13.50;84.00
18974;DHT22;9621;48.690;9.466;2023-06-26T00:32:07;13.50;83.90
18974;DHT22;9621;48.690;9.466;2023-06-26T00:34:35;13.40;84.20
18974;DHT22;9621;48.690;9.466;2023-06-26T00:37:02;13.40;84.00
18974;DHT22;9621;48.690;9.466;2023-06-26T00:39:29;13.40;84.40
18974;DHT22;9621;48.690;9.466;2023-06-26T00:41:56;13.30;84.50
18974;DHT22;9621;48.690;9.466;2023-06-26T00:44:23;13.30;84.60
18974;DHT22;9621;48.690;9.466;2023-06-26T00:46:50;13.30;85.20
18974;DHT22;9621;48.690;9.466;2023-06-26T00:49:18;13.30;85.10
18974;DHT22;9621;48.690;9.466;2023-06-26T00:51:46;13.30;85.90
18974;DHT22;9621;48.690;9.466;2023-06-26T00:54:14;13.30;85.70
18974;DHT22;9621;48.690;9.466;2023-06-26T00:56:45;13.20;86.40
18974;DHT22;9621;48.690;9.466;2023-06-26T00:59:12;13.10;86.40
18974;DHT22;9621;48.690;9.466;2023-06-26T01:01:40;13.10;86.50
18974;DHT22;9621;48.690;9.466;2023-06-26T01:04:07;13.00;86.90
18974;DHT22;9621;48.690;9.466;2023-06-26T01:06:45;12.90;87.50
18974;DHT22;9621;48.690;9.466;2023-06-26T01:09:16;12.90;88.30
18974;DHT22;9621;48.690;9.466;2023-06-26T01:11:43;12.80;88.20
18974;DHT22;9621;48.690;9.466;2023-06-26T01:14:10;12.80;87.90
18974;DHT22;9621;48.690;9.466;2023-06-26T01:16:38;12.80;88.30
18974;DHT22;9621;48.690;9.466;2023-06-26T01:19:09;12.70;88.70
18974;DHT22;9621;48.690;9.466;2023-06-26T01:21:40;12.70;89.60
18974;DHT22;9621;48.690;9.466;2023-06-26T01:24:16;12.70;89.70
18974;DHT22;9621;48.690;9.466;2023-06-26T01:26:49;12.70;90.50
18974;DHT22;9621;48.690;9.466;2023-06-26T01:29:17;12.60;90.20
18974;DHT22;9621;48.690;9.466;2023-06-26T01:31:45;12.60;90.00
18974;DHT22;9621;48.690;9.466;2023-06-26T01:34:15;12.50;90.00
18974;DHT22;9621;48.690;9.466;2023-06-26T01:36:42;12.60;89.90
18974;DHT22;9621;48.690;9.466;2023-06-26T01:39:10;12.50;89.90
18974;DHT22;9621;48.690;9.466;2023-06-26T01:41:37;12.50;90.40
18974;DHT22;9621;48.690;9.466;2023-06-26T01:44:12;12.50;90.20
18974;DHT22;9621;48.690;9.466;2023-06-26T01:46:48;12.50;91.10
18974;DHT22;9621;48.690;9.466;2023-06-26T01:49:23;12.50;91.10
18974;DHT22;9621;48.690;9.466;2023-06-26T01:51:57;12.60;91.10
18974;DHT22;9621;48.690;9.466;2023-06-26T01:54:25;12.50;91.10
18974;DHT22;9621;48.690;9.466;2023-06-26T01:56:57;12.40;90.90
18974;DHT22;9621;48.690;9.466;2023-06-26T01:59:28;12.40;90.90
18974;DHT22;9621;48.690;9.466;2023-06-26T02:01:56;12.30;91.10
18974;DHT22;9621;48.690;9.466;2023-06-26T02:04:23;12.30;90.80
18974;DHT22;9621;48.690;9.466;2023-06-26T02:06:50;12.30;90.90
18974;DHT22;9621;48.690;9.466;2023-06-26T02:09:16;12.30;91.00
18974;DHT22;9621;48.690;9.466;2023-06-26T02:11:43;12.30;91.30
18974;DHT22;9621;48.690;9.466;2023-06-26T02:14:10;12.30;91.50
18974;DHT22;9621;48.690;9.466;2023-06-26T02:16:39;12.30;91.60
18974;DHT22;9621;48.690;9.466;2023-06-26T02:19:06;12.20;91.90
18974;DHT22;9621;48.690;9.466;2023-06-26T02:21:33;12.20;91.70
18974;DHT22;9621;48.690;9.466;2023-06-26T02:24:01;12.20;91.90
18974;DHT22;9621;48.690;9.466;2023-06-26T02:26:28;12.10;92.00
18974;DHT22;9621;48.690;9.466;2023-06-26T02:28:55;12.10;92.20
18974;DHT22;9621;48.690;9.466;2023-06-26T02:31:21;12.20;92.40
18974;DHT22;9621;48.690;9.466;2023-06-26T02:33:49;12.10;92.50
18974;DHT22;9621;48.690;9.466;2023-06-26T02:36:16;12.10;92.70
18974;DHT22;9621;48.690;9.466;2023-06-26T02:38:44;12.00;92.70
18974;DHT22;9621;48.690;9.466;2023-06-26T02:41:11;11.90;93.00
18974;DHT22;9621;48.690;9.466;2023-06-26T02:43:40;11.90;93.10
18974;DHT22;9621;48.690;9.466;2023-06-26T02:46:07;11.90;93.30
18974;DHT22;9621;48.690;9.466;2023-06-26T02:48:34;11.80;93.40
18974;DHT22;9621;48.690;9.466;2023-06-26T02:51:02;11.80;93.70
18974;DHT22;9621;48.690;9.466;2023-06-26T02:53:29;11.80;94.10
18974;DHT22;9621;48.690;9.466;2023-06-26T02:55:57;11.70;94.00
18974;DHT22;9621;48.690;9.466;2023-06-26T02:58:24;11.70;94.20
18974;DHT22;9621;48.690;9.466;2023-06-26T03:00:51;11.60;94.40
18974;DHT22;9621;48.690;9.466;2023-06-26T03:03:19;11.60;94.60
18974;DHT22;9621;48.690;9.466;2023-06-26T03:05:46;11.60;94.80
18974;DHT22;9621;48.690;9.466;2023-06-26T03:08:14;11.50;95.00
18974;DHT22;9621;48.690;9.466;2023-06-26T03:10:41;11.50;95.50
18974;DHT22;9621;48.690;9.466;2023-06-26T03:13:08;11.50;95.50
18974;DHT22;9621;48.690;9.466;2023-06-26T03:15:35;11.50;95.80
18974;DHT22;9621;48.690;9.466;2023-06-26T03:18:02;11.50;95.90
18974;DHT22;9621;48.690;9.466;2023-06-26T03:20:29;11.50;96.00
18974;DHT22;9621;48.690;9.466;2023-06-26T03:22:56;11.50;96.30
18974;DHT22;9621;48.690;9.466;2023-06-26T03:25:24;11.50;96.60
18974;DHT22;9621;48.690;9.466;2023-06-26T03:27:51;11.50;97.20
18974;DHT22;9621;48.690;9.466;2023-06-26T03:30:18;11.40;97.00
18974;DHT22;9621;48.690;9.466;2023-06-26T03:32:45;11.40;97.10
18974;DHT22;9621;48.690;9.466;2023-06-26T03:35:12;11.40;97.40
18974;DHT22;9621;48.690;9.466;2023-06-26T03:37:39;11.30;97.70
18974;DHT22;9621;48.690;9.466;2023-06-26T03:40:07;11.30;98.10
18974;DHT22;9621;48.690;9.466;2023-06-26T03:42:35;11.30;98.40
18974;DHT22;9621;48.690;9.466;2023-06-26T03:45:02;11.20;99.00
18974;DHT22;9621;48.690;9.466;2023-06-26T03:47:29;11.20;98.90
18974;DHT22;9621;48.690;9.466;2023-06-26T03:50:07;11.20;99.10
18974;DHT22;9621;48.690;9.466;2023-06-26T03:52:34;11.20;99.60
18974;DHT22;9621;48.690;9.466;2023-06-26T03:55:01;11.30;99.90
18974;DHT22;9621;48.690;9.466;2023-06-26T03:57:28;11.40;99.90
18974;DHT22;9621;48.690;9.466;2023-06-26T03:59:57;11.60;99.90
18974;DHT22;9621;48.690;9.466;2023-06-26T04:02:23;11.80;99.90
18974;DHT22;9621;48.690;9.466;2023-06-26T04:04:50;11.90;99.90
18974;DHT22;9621;48.690;9.466;2023-06-26T04:07:18;12.10;99.90
18974;DHT22;9621;48.690;9.466;2023-06-26T04:09:44;12.30;99.90
18974;DHT22;9621;48.690;9.466;2023-06-26T04:12:11;12.60;99.90
18974;DHT22;9621;48.690;9.466;2023-06-26T04:14:38;12.90;99.90
18974;DHT22;9621;48.690;9.466;2023-06-26T04:17:06;13.20;99.90
18974;DHT22;9621;48.690;9.466;2023-06-26T04:19:33;13.30;99.90
18974;DHT22;9621;48.690;9.466;2023-06-26T04:22:01;13.60;99.60
18974;DHT22;9621;48.690;9.466;2023-06-26T04:24:28;13.90;99.30
18974;DHT22;9621;48.690;9.466;2023-06-26T04:26:55;14.10;99.00
18974;DHT22;9621;48.690;9.466;2023-06-26T04:29:23;14.40;98.60
18974;DHT22;9621;48.690;9.466;2023-06-26T04:31:50;14.70;98.20
18974;DHT22;9621;48.690;9.466;2023-06-26T04:34:19;15.00;97.80
18974;DHT22;9621;48.690;9.466;2023-06-26T04:36:46;15.30;97.30
18974;DHT22;9621;48.690;9.466;2023-06-26T04:39:13;15.60;97.00
18974;DHT22;9621;48.690;9.466;2023-06-26T04:41:41;15.90;96.70
18974;DHT22;9621;48.690;9.466;2023-06-26T04:44:08;16.10;96.20
18974;DHT22;9621;48.690;9.466;2023-06-26T04:46:37;16.50;95.80
18974;DHT22;9621;48.690;9.466;2023-06-26T04:49:06;16.80;95.20
18974;DHT22;9621;48.690;9.466;2023-06-26T04:51:34;17.10;94.90
18974;DHT22;9621;48.690;9.466;2023-06-26T04:54:05;17.30;94.20
18974;DHT22;9621;48.690;9.466;2023-06-26T04:56:32;17.50;93.90
18974;DHT22;9621;48.690;9.466;2023-06-26T04:58:59;17.70;93.60
18974;DHT22;9621;48.690;9.466;2023-06-26T05:01:26;18.00;93.30
18974;DHT22;9621;48.690;9.466;2023-06-26T05:03:55;18.20;93.00
18974;DHT22;9621;48.690;9.466;2023-06-26T05:06:22;18.50;92.50
18974;DHT22;9621;48.690;9.466;2023-06-26T05:08:51;18.80;92.00
18974;DHT22;9621;48.690;9.466;2023-06-26T05:11:17;19.10;91.40
18974;DHT22;9621;48.690;9.466;2023-06-26T05:13:44;19.40;91.10
18974;DHT22;9621;48.690;9.466;2023-06-26T05:16:11;19.70;90.70
18974;DHT22;9621;48.690;9.466;2023-06-26T05:18:38;20.00;90.30
18974;DHT22;9621;48.690;9.466;2023-06-26T05:21:05;20.40;89.60
18974;DHT22;9621;48.690;9.466;2023-06-26T05:23:33;20.60;88.70
18974;DHT22;9621;48.690;9.466;2023-06-26T05:26:02;21.00;87.50
18974;DHT22;9621;48.690;9.466;2023-06-26T05:28:30;21.30;85.90
18974;DHT22;9621;48.690;9.466;2023-06-26T05:30:58;21.60;84.80
18974;DHT22;9621;48.690;9.466;2023-06-26T05:33:26;21.90;83.70
18974;DHT22;9621;48.690;9.466;2023-06-26T05:35:54;22.10;82.10
18974;DHT22;9621;48.690;9.466;2023-06-26T05:38:21;22.30;81.60
18974;DHT22;9621;48.690;9.466;2023-06-26T05:40:48;22.50;80.90
18974;DHT22;9621;48.690;9.466;2023-06-26T05:43:18;22.70;79.90
18974;DHT22;9621;48.690;9.466;2023-06-26T05:45:46;23.00;78.50
18974;DHT22;9621;48.690;9.466;2023-06-26T05:48:13;23.20;77.40
18974;DHT22;9621;48.690;9.466;2023-06-26T05:50:41;23.40;76.10
18974;DHT22;9621;48.690;9.466;2023-06-26T05:53:09;23.50;75.50
18974;DHT22;9621;48.690;9.466;2023-06-26T05:55:37;23.50;75.00
18974;DHT22;9621;48.690;9.466;2023-06-26T05:58:05;23.60;74.10
18974;DHT22;9621;48.690;9.466;2023-06-26T06:00:34;23.90;74.30
18974;DHT22;9621;48.690;9.466;2023-06-26T06:03:01;24.10;73.20
18974;DHT22;9621;48.690;9.466;2023-06-26T06:05:29;24.40;73.40
18974;DHT22;9621;48.690;9.466;2023-06-26T06:07:56;24.80;72.70
18974;DHT22;9621;48.690;9.466;2023-06-26T06:10:22;25.20;71.50
18974;DHT22;9621;48.690;9.466;2023-06-26T06:12:50;25.50;70.70
18974;DHT22;9621;48.690;9.466;2023-06-26T06:15:17;25.90;69.50
18974;DHT22;9621;48.690;9.466;2023-06-26T06:17:45;26.10;68.60
18974;DHT22;9621;48.690;9.466;2023-06-26T06:20:12;26.50;66.40
18974;DHT22;9621;48.690;9.466;2023-06-26T06:22:39;26.70;67.10
18974;DHT22;9621;48.690;9.466;2023-06-26T06:25:06;26.90;65.60
18974;DHT22;9621;48.690;9.466;2023-06-26T06:27:36;27.10;64.90
18974;DHT22;9621;48.690;9.466;2023-06-26T06:30:03;27.30;63.70
18974;DHT22;9621;48.690;9.466;2023-06-26T06:32:30;27.50;63.80
18974;DHT22;9621;48.690;9.466;2023-06-26T06:34:59;27.80;63.00
18974;DHT22;9621;48.690;9.466;2023-06-26T06:37:29;28.10;62.10
18974;DHT22;9621;48.690;9.466;2023-06-26T06:39:57;28.30;61.50
18974;DHT22;9621;48.690;9.466;2023-06-26T06:42:24;28.50;60.60
18974;DHT22;9621;48.690;9.466;2023-06-26T06:44:51;28.60;59.80
18974;DHT22;9621;48.690;9.466;2023-06-26T06:47:18;28.70;60.00
18974;DHT22;9621;48.690;9.466;2023-06-26T06:49:46;28.90;59.60
18974;DHT22;9621;48.690;9.466;2023-06-26T06:52:14;29.10;59.20
18974;DHT22;9621;48.690;9.466;2023-06-26T06:54:51;29.30;58.60
18974;DHT22;9621;48.690;9.466;2023-06-26T06:57:19;29.60;57.30
18974;DHT22;9621;48.690;9.466;2023-06-26T06:59:46;29.90;57.50
18974;DHT22;9621;48.690;9.466;2023-06-26T07:02:14;30.10;57.10
18974;DHT22;9621;48.690;9.466;2023-06-26T07:04:41;30.20;56.30
18974;DHT22;9621;48.690;9.466;2023-06-26T07:07:08;30.40;56.00
18974;DHT22;9621;48.690;9.466;2023-06-26T07:09:36;30.60;55.00
18974;DHT22;9621;48.690;9.466;2023-06-26T07:12:04;30.60;53.90
18974;DHT22;9621;48.690;9.466;2023-06-26T07:14:31;30.70;54.00
18974;DHT22;9621;48.690;9.466;2023-06-26T07:16:58;30.80;53.40
18974;DHT22;9621;48.690;9.466;2023-06-26T07:19:25;30.90;52.80
18974;DHT22;9621;48.690;9.466;2023-06-26T07:21:51;30.90;53.00
18974;DHT22;9621;48.690;9.466;2023-06-26T07:24:18;31.00;52.00
18974;DHT22;9621;48.690;9.466;2023-06-26T07:26:46;31.00;51.40
18974;DHT22;9621;48.690;9.466;2023-06-26T07:29:13;31.10;50.90
18974;DHT22;9621;48.690;9.466;2023-06-26T07:31:41;31.10;50.90
18974;DHT22;9621;48.690;9.466;2023-06-26T07:34:10;31.10;51.20
18974;DHT22;9621;48.690;9.466;2023-06-26T07:36:36;31.10;50.90
18974;DHT22;9621;48.690;9.466;2023-06-26T07:39:03;31.20;50.10
18974;DHT22;9621;48.690;9.466;2023-06-26T07:41:30;31.30;49.80
18974;DHT22;9621;48.690;9.466;2023-06-26T07:43:59;31.30;49.40
18974;DHT22;9621;48.690;9.466;2023-06-26T07:46:26;31.30;49.20
18974;DHT22;9621;48.690;9.466;2023-06-26T07:48:53;31.40;49.10
18974;DHT22;9621;48.690;9.466;2023-06-26T07:51:21;31.50;48.80
18974;DHT22;9621;48.690;9.466;2023-06-26T07:53:48;31.50;48.50
18974;DHT22;9621;48.690;9.466;2023-06-26T07:56:15;31.60;48.50
18974;DHT22;9621;48.690;9.466;2023-06-26T07:58:42;31.70;48.40
18974;DHT22;9621;48.690;9.466;2023-06-26T08:01:10;31.80;48.40
18974;DHT22;9621;48.690;9.466;2023-06-26T08:03:39;32.00;47.80
18974;DHT22;9621;48.690;9.466;2023-06-26T08:06:06;32.20;47.90
18974;DHT22;9621;48.690;9.466;2023-06-26T08:08:36;32.40;47.70
18974;DHT22;9621;48.690;9.466;2023-06-26T08:11:03;32.70;47.20
18974;DHT22;9621;48.690;9.466;2023-06-26T08:13:30;32.90;47.20
18974;DHT22;9621;48.690;9.466;2023-06-26T08:15:56;33.20;46.70
18974;DHT22;9621;48.690;9.466;2023-06-26T08:18:25;33.40;46.10
18974;DHT22;9621;48.690;9.466;2023-06-26T08:20:51;33.60;45.50
18974;DHT22;9621;48.690;9.466;2023-06-26T08:23:18;33.80;45.20
18974;DHT22;9621;48.690;9.466;2023-06-26T08:25:45;34.00;44.80
18974;DHT22;9621;48.690;9.466;2023-06-26T08:28:12;34.10;44.60
18974;DHT22;9621;48.690;9.466;2023-06-26T08:30:39;34.20;44.40
18974;DHT22;9621;48.690;9.466;2023-06-26T08:33:06;34.30;43.70
18974;DHT22;9621;48.690;9.466;2023-06-26T08:35:39;34.30;43.70
18974;DHT22;9621;48.690;9.466;2023-06-26T08:38:05;34.40;43.10
18974;DHT22;9621;48.690;9.466;2023-06-26T08:40:35;34.40;43.10
18974;DHT22;9621;48.690;9.466;2023-06-26T08:43:02;34.40;43.20
18974;DHT22;9621;48.690;9.466;2023-06-26T08:45:29;34.50;43.10
18974;DHT22;9621;48.690;9.466;2023-06-26T08:47:59;34.50;42.40
18974;DHT22;9621;48.690;9.466;2023-06-26T08:50:29;34.60;42.70
18974;DHT22;9621;48.690;9.466;2023-06-26T08:53:04;34.80;42.50
18974;DHT22;9621;48.690;9.466;2023-06-26T08:55:33;34.90;41.50
18974;DHT22;9621;48.690;9.466;2023-06-26T08:58:02;35.10;41.90
18974;DHT22;9621;48.690;9.466;2023-06-26T09:00:30;35.30;42.50
18974;DHT22;9621;48.690;9.466;2023-06-26T09:02:57;35.70;41.90
18974;DHT22;9621;48.690;9.466;2023-06-26T09:05:25;36.00;41.60
18974;DHT22;9621;48.690;9.466;2023-06-26T09:07:52;36.40;40.40
18974;DHT22;9621;48.690;9.466;2023-06-26T09:10:22;36.60;39.80
18974;DHT22;9621;48.690;9.466;2023-06-26T09:12:49;36.50;38.70
18974;DHT22;9621;48.690;9.466;2023-06-26T09:15:19;36.50;39.00
18974;DHT22;9621;48.690;9.466;2023-06-26T09:17:47;36.30;38.20
18974;DHT22;9621;48.690;9.466;2023-06-26T09:20:14;36.10;38.40
18974;DHT22;9621;48.690;9.466;2023-06-26T09:22:42;35.90;38.60
18974;DHT22;9621;48.690;9.466;2023-06-26T09:25:10;35.70;38.40
18974;DHT22;9621;48.690;9.466;2023-06-26T09:27:38;35.60;38.90
18974;DHT22;9621;48.690;9.466;2023-06-26T09:30:06;35.50;38.60
18974;DHT22;9621;48.690;9.466;2023-06-26T09:32:34;35.50;38.40
18974;DHT22;9621;48.690;9.466;2023-06-26T09:35:02;35.50;38.60
18974;DHT22;9621;48.690;9.466;2023-06-26T09:37:30;35.40;37.90
18974;DHT22;9621;48.690;9.466;2023-06-26T09:39:57;35.20;38.10
18974;DHT22;9621;48.690;9.466;2023-06-26T09:42:24;35.00;38.00
18974;DHT22;9621;48.690;9.466;2023-06-26T09:44:52;34.90;37.80
18974;DHT22;9621;48.690;9.466;2023-06-26T09:47:20;34.70;37.70
18974;DHT22;9621;48.690;9.466;2023-06-26T09:49:47;34.60;38.50
18974;DHT22;9621;48.690;9.466;2023-06-26T09:52:15;34.60;39.00
18974;DHT22;9621;48.690;9.466;2023-06-26T09:54:43;34.70;40.00
18974;DHT22;9621;48.690;9.466;2023-06-26T09:57:12;34.90;39.70
18974;DHT22;9621;48.690;9.466;2023-06-26T09:59:40;35.20;39.00
18974;DHT22;9621;48.690;9.466;2023-06-26T10:02:09;35.60;38.90
18974;DHT22;9621;48.690;9.466;2023-06-26T10:04:38;35.80;38.80
18974;DHT22;9621;48.690;9.466;2023-06-26T10:07:06;36.10;38.00
18974;DHT22;9621;48.690;9.466;2023-06-26T10:09:36;36.40;37.90
18974;DHT22;9621;48.690;9.466;2023-06-26T10:12:06;36.60;38.20
18974;DHT22;9621;48.690;9.466;2023-06-26T10:14:37;36.70;37.00
18974;DHT22;9621;48.690;9.466;2023-06-26T10:17:09;37.00;37.20
18974;DHT22;9621;48.690;9.466;2023-06-26T10:19:38;37.50;36.80
18974;DHT22;9621;48.690;9.466;2023-06-26T10:22:05;37.70;36.20
18974;DHT22;9621;48.690;9.466;2023-06-26T10:24:35;37.70;36.40
18974;DHT22;9621;48.690;9.466;2023-06-26T10:27:06;37.60;35.80
18974;DHT22;9621;48.690;9.466;2023-06-26T10:29:35;37.30;35.40
18974;DHT22;9621;48.690;9.466;2023-06-26T10:32:04;37.00;35.40
18974;DHT22;9621;48.690;9.466;2023-06-26T10:34:35;36.70;35.60
18974;DHT22;9621;48.690;9.466;2023-06-26T10:37:03;36.60;35.50
18974;DHT22;9621;48.690;9.466;2023-06-26T10:39:47;36.60;35.50
18974;DHT22;9621;48.690;9.466;2023-06-26T10:42:15;36.50;35.80
18974;DHT22;9621;48.690;9.466;2023-06-26T10:44:42;36.40;35.90
18974;DHT22;9621;48.690;9.466;2023-06-26T10:47:10;36.00;35.70
18974;DHT22;9621;48.690;9.466;2023-06-26T10:49:38;35.50;36.20
18974;DHT22;9621;48.690;9.466;2023-06-26T10:52:07;35.00;37.00
18974;DHT22;9621;48.690;9.466;2023-06-26T10:54:35;34.30;37.20
18974;DHT22;9621;48.690;9.466;2023-06-26T10:57:04;33.70;38.00
18974;DHT22;9621;48.690;9.466;2023-06-26T10:59:34;33.10;38.90
18974;DHT22;9621;48.690;9.466;2023-06-26T11:02:01;32.50;39.70
18974;DHT22;9621;48.690;9.466;2023-06-26T11:04:45;32.10;40.40
18974;DHT22;9621;48.690;9.466;2023-06-26T11:07:18;31.60;41.20
18974;DHT22;9621;48.690;9.466;2023-06-26T11:09:58;31.20;41.70
18974;DHT22;9621;48.690;9.466;2023-06-26T11:12:38;30.90;42.30
18974;DHT22;9621;48.690;9.466;2023-06-26T11:15:08;30.70;43.40
18974;DHT22;9621;48.690;9.466;2023-06-26T11:17:35;30.50;43.50
18974;DHT22;9621;48.690;9.466;2023-06-26T11:20:05;30.30;43.90
18974;DHT22;9621;48.690;9.466;2023-06-26T11:22:35;30.20;44.50
18974;DHT22;9621;48.690;9.466;2023-06-26T11:25:03;30.00;45.00
18974;DHT22;9621;48.690;9.466;2023-06-26T11:27:32;29.90;46.30
18974;DHT22;9621;48.690;9.466;2023-06-26T11:29:59;29.70;45.90
18974;DHT22;9621;48.690;9.466;2023-06-26T11:32:26;29.60;46.30
18974;DHT22;9621;48.690;9.466;2023-06-26T11:34:54;29.30;46.70
18974;DHT22;9621;48.690;9.466;2023-06-26T11:37:22;29.30;47.20
18974;DHT22;9621;48.690;9.466;2023-06-26T11:39:49;29.20;47.60
18974;DHT22;9621;48.690;9.466;2023-06-26T11:42:16;29.40;47.70
18974;DHT22;9621;48.690;9.466;2023-06-26T11:44:44;29.70;47.30
18974;DHT22;9621;48.690;9.466;2023-06-26T11:47:14;30.10;47.20
18974;DHT22;9621;48.690;9.466;2023-06-26T11:49:43;30.50;46.50
18974;DHT22;9621;48.690;9.466;2023-06-26T11:52:10;30.80;45.90
18974;DHT22;9621;48.690;9.466;2023-06-26T11:54:38;31.10;46.00
18974;DHT22;9621;48.690;9.466;2023-06-26T11:57:05;31.40;45.80
18974;DHT22;9621;48.690;9.466;2023-06-26T11:59:34;31.70;45.40
18974;DHT22;9621;48.690;9.466;2023-06-26T12:02:05;32.20;44.90
18974;DHT22;9621;48.690;9.466;2023-06-26T12:04:34;32.60;43.80
18974;DHT22;9621;48.690;9.466;2023-06-26T12:07:02;32.90;43.10
18974;DHT22;9621;48.690;9.466;2023-06-26T12:09:31;33.00;42.40
18974;DHT22;9621;48.690;9.466;2023-06-26T12:12:01;33.00;42.30
18974;DHT22;9621;48.690;9.466;2023-06-26T12:14:28;32.90;41.70
18974;DHT22;9621;48.690;9.466;2023-06-26T12:16:55;32.70;42.20
18974;DHT22;9621;48.690;9.466;2023-06-26T12:19:25;32.40;42.20
18974;DHT22;9621;48.690;9.466;2023-06-26T12:21:53;32.30;42.50
18974;DHT22;9621;48.690;9.466;2023-06-26T12:24:23;32.20;42.50
18974;DHT22;9621;48.690;9.466;2023-06-26T12:26:52;32.20;42.90
18974;DHT22;9621;48.690;9.466;2023-06-26T12:29:30;32.20;43.50
18974;DHT22;9621;48.690;9.466;2023-06-26T12:31:57;32.10;43.60
18974;DHT22;9621;48.690;9.466;2023-06-26T12:34:27;32.10;43.50
18974;DHT22;9621;48.690;9.466;2023-06-26T12:37:00;32.00;43.70
18974;DHT22;9621;48.690;9.466;2023-06-26T12:39:27;31.90;43.50
18974;DHT22;9621;48.690;9.466;2023-06-26T12:41:58;31.70;43.90
18974;DHT22;9621;48.690;9.466;2023-06-26T12:44:29;31.60;44.40
18974;DHT22;9621;48.690;9.466;2023-06-26T12:46:57;31.40;45.30
18974;DHT22;9621;48.690;9.466;2023-06-26T12:49:31;31.40;45.40
18974;DHT22;9621;48.690;9.466;2023-06-26T12:51:59;31.40;46.00
18974;DHT22;9621;48.690;9.466;2023-06-26T12:54:26;31.40;46.10
18974;DHT22;9621;48.690;9.466;2023-06-26T12:56:53;31.40;46.30
18974;DHT22;9621;48.690;9.466;2023-06-26T12:59:20;31.50;46.50
18974;DHT22;9621;48.690;9.466;2023-06-26T13:01:49;31.60;46.70
18974;DHT22;9621;48.690;9.466;2023-06-26T13:04:16;31.70;46.60
18974;DHT22;9621;48.690;9.466;2023-06-26T13:06:43;31.80;46.40
18974;DHT22;9621;48.690;9.466;2023-06-26T13:09:10;31.90;46.50
18974;DHT22;9621;48.690;9.466;2023-06-26T13:11:38;32.00;46.60
18974;DHT22;9621;48.690;9.466;2023-06-26T13:14:04;32.10;46.40
18974;DHT22;9621;48.690;9.466;2023-06-26T13:16:31;32.10;46.20
18974;DHT22;9621;48.690;9.466;2023-06-26T13:19:00;32.00;46.20
18974;DHT22;9621;48.690;9.466;2023-06-26T13:21:27;32.00;46.30
18974;DHT22;9621;48.690;9.466;2023-06-26T13:23:54;32.00;46.60
18974;DHT22;9621;48.690;9.466;2023-06-26T13:26:22;32.20;46.30
18974;DHT22;9621;48.690;9.466;2023-06-26T13:28:49;32.30;46.20
18974;DHT22;9621;48.690;9.466;2023-06-26T13:31:16;32.30;46.10
18974;DHT22;9621;48.690;9.466;2023-06-26T13:33:43;32.40;46.20
18974;DHT22;9621;48.690;9.466;2023-06-26T13:36:12;32.50;46.00
18974;DHT22;9621;48.690;9.466;2023-06-26T13:38:39;32.50;45.80
18974;DHT22;9621;48.690;9.466;2023-06-26T13:41:06;32.50;45.60
18974;DHT22;9621;48.690;9.466;2023-06-26T13:43:33;32.50;45.90
18974;DHT22;9621;48.690;9.466;2023-06-26T13:46:00;32.40;45.90
18974;DHT22;9621;48.690;9.466;2023-06-26T13:48:28;32.40;45.90
18974;DHT22;9621;48.690;9.466;2023-06-26T13:50:56;32.40;46.10
18974;DHT22;9621;48.690;9.466;2023-06-26T13:53:24;32.40;45.80
18974;DHT22;9621;48.690;9.466;2023-06-26T13:55:51;32.30;45.50
18974;DHT22;9621;48.690;9.466;2023-06-26T13:58:18;32.30;45.70
18974;DHT22;9621;48.690;9.466;2023-06-26T14:00:48;32.10;46.00
18974;DHT22;9621;48.690;9.466;2023-06-26T14:03:15;32.00;46.10
18974;DHT22;9621;48.690;9.466;2023-06-26T14:05:43;32.00;46.30
18974;DHT22;9621;48.690;9.466;2023-06-26T14:08:10;32.00;46.30
18974;DHT22;9621;48.690;9.466;2023-06-26T14:10:38;32.10;46.40
18974;DHT22;9621;48.690;9.466;2023-06-26T14:13:05;32.10;46.40
18974;DHT22;9621;48.690;9.466;2023-06-26T14:15:32;32.30;46.30
18974;DHT22;9621;48.690;9.466;2023-06-26T14:17:59;32.50;45.70
18974;DHT22;9621;48.690;9.466;2023-06-26T14:20:28;32.50;45.50
18974;DHT22;9621;48.690;9.466;2023-06-26T14:22:58;32.60;45.50
18974;DHT22;9621;48.690;9.466;2023-06-26T14:25:38;32.80;45.30
18974;DHT22;9621;48.690;9.466;2023-06-26T14:28:05;32.80;44.90
18974;DHT22;9621;48.690;9.466;2023-06-26T14:30:32;32.80;44.50
18974;DHT22;9621;48.690;9.466;2023-06-26T14:32:59;32.90;44.50
18974;DHT22;9621;48.690;9.466;2023-06-26T14:35:26;32.90;44.10
18974;DHT22;9621;48.690;9.466;2023-06-26T14:37:53;32.90;43.90
18974;DHT22;9621;48.690;9.466;2023-06-26T14:40:20;32.90;43.50
18974;DHT22;9621;48.690;9.466;2023-06-26T14:42:48;32.90;42.90
18974;DHT22;9621;48.690;9.466;2023-06-26T14:45:15;32.80;42.90
18974;DHT22;9621;48.690;9.466;2023-06-26T14:47:42;32.70;42.40
18974;DHT22;9621;48.690;9.466;2023-06-26T14:50:09;32.60;41.90
18974;DHT22;9621;48.690;9.466;2023-06-26T14:52:36;32.50;41.80
18974;DHT22;9621;48.690;9.466;2023-06-26T14:55:03;32.30;42.00
18974;DHT22;9621;48.690;9.466;2023-06-26T14:57:30;32.20;42.00
18974;DHT22;9621;48.690;9.466;2023-06-26T14:59:58;32.00;42.30
18974;DHT22;9621;48.690;9.466;2023-06-26T15:02:25;32.00;41.80
18974;DHT22;9621;48.690;9.466;2023-06-26T15:04:52;32.10;42.10
18974;DHT22;9621;48.690;9.466;2023-06-26T15:07:19;31.90;42.10
18974;DHT22;9621;48.690;9.466;2023-06-26T15:09:46;31.90;42.30
18974;DHT22;9621;48.690;9.466;2023-06-26T15:12:13;32.00;41.60
18974;DHT22;9621;48.690;9.466;2023-06-26T15:14:40;31.90;41.40
18974;DHT22;9621;48.690;9.466;2023-06-26T15:17:08;31.90;41.50
18974;DHT22;9621;48.690;9.466;2023-06-26T15:19:35;32.00;41.40
18974;DHT22;9621;48.690;9.466;2023-06-26T15:22:02;31.90;41.70
18974;DHT22;9621;48.690;9.466;2023-06-26T15:24:29;31.90;41.90
18974;DHT22;9621;48.690;9.466;2023-06-26T15:26:56;31.90;41.90
18974;DHT22;9621;48.690;9.466;2023-06-26T15:29:23;31.80;41.70
18974;DHT22;9621;48.690;9.466;2023-06-26T15:31:50;31.80;42.20
18974;DHT22;9621;48.690;9.466;2023-06-26T15:34:18;31.80;41.50
18974;DHT22;9621;48.690;9.466;2023-06-26T15:36:45;31.70;41.40
18974;DHT22;9621;48.690;9.466;2023-06-26T15:39:12;31.60;41.50
18974;DHT22;9621;48.690;9.466;2023-06-26T15:41:38;31.40;41.50
18974;DHT22;9621;48.690;9.466;2023-06-26T15:44:05;31.40;41.90
18974;DHT22;9621;48.690;9.466;2023-06-26T15:46:32;31.30;42.20
18974;DHT22;9621;48.690;9.466;2023-06-26T15:48:59;31.20;42.30